Terminal Aerodrome Forecast
Issued by NWS

Home | Current Version | Previous Version | Graphics & Text | Print | Product List | Glossary On
Versions: 1 2 3 4 5 6 7 8 9 10 11 12
000
FTUS43 KICT 271120
TAFCNU
TAF
KCNU 271120Z 2712/2812 02013KT P6SM OVC012
     FM271300 01013KT P6SM OVC025
     FM271400 02013KT P6SM BKN035
     FM272000 02009KT P6SM SCT040 BKN100=

USA.gov is the U.S. government's official web portal to all federal, state and local government web resources and services.